sensor_id;sensor_type;location;lat;lon;timestamp;P1;durP1;ratioP1;P2;durP2;ratioP2
68076;SDS011;54866;53.458;14.540;2022-08-01T00:00:25;2.20;;;1.20;;
68076;SDS011;54866;53.458;14.540;2022-08-01T00:02:55;3.60;;;1.40;;
68076;SDS011;54866;53.458;14.540;2022-08-01T00:05:25;2.60;;;1.40;;
68076;SDS011;54866;53.458;14.540;2022-08-01T00:07:55;2.00;;;1.10;;
68076;SDS011;54866;53.458;14.540;2022-08-01T00:10:24;4.30;;;1.20;;
68076;SDS011;54866;53.458;14.540;2022-08-01T00:12:54;2.40;;;1.20;;
68076;SDS011;54866;53.458;14.540;2022-08-01T00:15:24;2.10;;;1.00;;
68076;SDS011;54866;53.458;14.540;2022-08-01T00:17:53;2.50;;;1.30;;
68076;SDS011;54866;53.458;14.540;2022-08-01T00:20:23;4.20;;;1.20;;
68076;SDS011;54866;53.458;14.540;2022-08-01T00:22:53;5.00;;;1.40;;
68076;SDS011;54866;53.458;14.540;2022-08-01T00:25:23;2.50;;;0.90;;
68076;SDS011;54866;53.458;14.540;2022-08-01T00:27:52;2.60;;;1.30;;
68076;SDS011;54866;53.458;14.540;2022-08-01T00:30:22;3.00;;;1.30;;
68076;SDS011;54866;53.458;14.540;2022-08-01T00:32:52;3.90;;;1.10;;
68076;SDS011;54866;53.458;14.540;2022-08-01T00:35:22;3.90;;;1.30;;
68076;SDS011;54866;53.458;14.540;2022-08-01T00:37:51;2.40;;;1.50;;
68076;SDS011;54866;53.458;14.540;2022-08-01T00:40:21;4.30;;;1.40;;
68076;SDS011;54866;53.458;14.540;2022-08-01T00:42:51;3.00;;;1.20;;
68076;SDS011;54866;53.458;14.540;2022-08-01T00:45:21;3.30;;;1.50;;
68076;SDS011;54866;53.458;14.540;2022-08-01T00:47:51;3.20;;;1.30;;
68076;SDS011;54866;53.458;14.540;2022-08-01T00:50:21;2.50;;;1.10;;
68076;SDS011;54866;53.458;14.540;2022-08-01T00:52:51;1.90;;;1.20;;
68076;SDS011;54866;53.458;14.540;2022-08-01T00:55:21;2.90;;;1.10;;
68076;SDS011;54866;53.458;14.540;2022-08-01T00:57:51;2.40;;;0.90;;
68076;SDS011;54866;53.458;14.540;2022-08-01T01:00:22;3.70;;;1.20;;
68076;SDS011;54866;53.458;14.540;2022-08-01T01:02:52;3.50;;;1.30;;
68076;SDS011;54866;53.458;14.540;2022-08-01T01:05:22;2.80;;;1.40;;
68076;SDS011;54866;53.458;14.540;2022-08-01T01:07:54;1.90;;;1.20;;
68076;SDS011;54866;53.458;14.540;2022-08-01T01:10:30;1.80;;;1.20;;
68076;SDS011;54866;53.458;14.540;2022-08-01T01:13:05;3.20;;;1.50;;
68076;SDS011;54866;53.458;14.540;2022-08-01T01:15:39;3.50;;;1.20;;
68076;SDS011;54866;53.458;14.540;2022-08-01T01:18:14;7.10;;;1.60;;
68076;SDS011;54866;53.458;14.540;2022-08-01T01:20:51;2.90;;;1.50;;
68076;SDS011;54866;53.458;14.540;2022-08-01T01:23:29;3.20;;;1.30;;
68076;SDS011;54866;53.458;14.540;2022-08-01T01:26:15;2.60;;;1.10;;
68076;SDS011;54866;53.458;14.540;2022-08-01T01:28:59;2.30;;;1.60;;
68076;SDS011;54866;53.458;14.540;2022-08-01T01:31:36;2.30;;;1.40;;
68076;SDS011;54866;53.458;14.540;2022-08-01T01:34:11;4.60;;;1.80;;
68076;SDS011;54866;53.458;14.540;2022-08-01T01:36:45;2.30;;;1.30;;
68076;SDS011;54866;53.458;14.540;2022-08-01T01:39:16;4.40;;;1.60;;
68076;SDS011;54866;53.458;14.540;2022-08-01T01:41:48;3.00;;;1.30;;
68076;SDS011;54866;53.458;14.540;2022-08-01T01:44:21;3.30;;;1.60;;
68076;SDS011;54866;53.458;14.540;2022-08-01T01:46:51;2.10;;;1.20;;
68076;SDS011;54866;53.458;14.540;2022-08-01T01:49:25;3.60;;;1.40;;
68076;SDS011;54866;53.458;14.540;2022-08-01T01:51:56;11.30;;;2.40;;
68076;SDS011;54866;53.458;14.540;2022-08-01T01:54:29;8.90;;;3.60;;
68076;SDS011;54866;53.458;14.540;2022-08-01T01:57:02;12.30;;;4.10;;
68076;SDS011;54866;53.458;14.540;2022-08-01T01:59:34;11.10;;;4.20;;
68076;SDS011;54866;53.458;14.540;2022-08-01T02:02:05;13.50;;;4.00;;
68076;SDS011;54866;53.458;14.540;2022-08-01T02:04:37;6.80;;;2.90;;
68076;SDS011;54866;53.458;14.540;2022-08-01T02:07:12;7.50;;;3.20;;
68076;SDS011;54866;53.458;14.540;2022-08-01T02:09:44;7.80;;;2.30;;
68076;SDS011;54866;53.458;14.540;2022-08-01T02:12:16;5.40;;;2.10;;
68076;SDS011;54866;53.458;14.540;2022-08-01T02:14:48;5.40;;;2.40;;
68076;SDS011;54866;53.458;14.540;2022-08-01T02:17:21;3.90;;;2.00;;
68076;SDS011;54866;53.458;14.540;2022-08-01T02:19:52;5.40;;;2.00;;
68076;SDS011;54866;53.458;14.540;2022-08-01T02:22:24;4.40;;;2.20;;
68076;SDS011;54866;53.458;14.540;2022-08-01T02:24:59;4.60;;;2.30;;
68076;SDS011;54866;53.458;14.540;2022-08-01T02:27:36;3.50;;;1.80;;
68076;SDS011;54866;53.458;14.540;2022-08-01T02:30:12;4.60;;;1.70;;
68076;SDS011;54866;53.458;14.540;2022-08-01T02:32:47;5.30;;;2.60;;
68076;SDS011;54866;53.458;14.540;2022-08-01T02:35:20;5.80;;;2.90;;
68076;SDS011;54866;53.458;14.540;2022-08-01T02:37:52;3.60;;;1.90;;
68076;SDS011;54866;53.458;14.540;2022-08-01T02:40:24;4.80;;;2.30;;
68076;SDS011;54866;53.458;14.540;2022-08-01T02:42:57;4.20;;;1.90;;
68076;SDS011;54866;53.458;14.540;2022-08-01T02:45:30;4.00;;;2.30;;
68076;SDS011;54866;53.458;14.540;2022-08-01T02:48:04;4.40;;;1.80;;
68076;SDS011;54866;53.458;14.540;2022-08-01T02:50:37;3.40;;;1.50;;
68076;SDS011;54866;53.458;14.540;2022-08-01T02:53:10;3.60;;;1.90;;
68076;SDS011;54866;53.458;14.540;2022-08-01T02:55:42;2.60;;;1.70;;
68076;SDS011;54866;53.458;14.540;2022-08-01T02:58:15;3.70;;;1.80;;
68076;SDS011;54866;53.458;14.540;2022-08-01T03:00:46;3.70;;;1.80;;
68076;SDS011;54866;53.458;14.540;2022-08-01T03:03:17;2.60;;;1.60;;
68076;SDS011;54866;53.458;14.540;2022-08-01T03:05:47;3.80;;;2.00;;
68076;SDS011;54866;53.458;14.540;2022-08-01T03:08:18;2.60;;;1.60;;
68076;SDS011;54866;53.458;14.540;2022-08-01T03:10:50;4.00;;;2.00;;
68076;SDS011;54866;53.458;14.540;2022-08-01T03:13:23;2.90;;;1.70;;
68076;SDS011;54866;53.458;14.540;2022-08-01T03:15:55;5.10;;;1.80;;
68076;SDS011;54866;53.458;14.540;2022-08-01T03:18:26;3.00;;;1.80;;
68076;SDS011;54866;53.458;14.540;2022-08-01T03:20:58;3.20;;;1.90;;
68076;SDS011;54866;53.458;14.540;2022-08-01T03:23:29;4.20;;;1.80;;
68076;SDS011;54866;53.458;14.540;2022-08-01T03:26:00;3.40;;;1.70;;
68076;SDS011;54866;53.458;14.540;2022-08-01T03:28:32;5.80;;;2.20;;
68076;SDS011;54866;53.458;14.540;2022-08-01T03:31:03;3.70;;;1.60;;
68076;SDS011;54866;53.458;14.540;2022-08-01T03:33:33;3.50;;;2.10;;
68076;SDS011;54866;53.458;14.540;2022-08-01T03:36:03;4.90;;;2.10;;
68076;SDS011;54866;53.458;14.540;2022-08-01T03:38:37;3.10;;;1.90;;
68076;SDS011;54866;53.458;14.540;2022-08-01T03:41:11;3.70;;;2.40;;
68076;SDS011;54866;53.458;14.540;2022-08-01T03:43:45;3.70;;;2.10;;
68076;SDS011;54866;53.458;14.540;2022-08-01T03:46:20;3.70;;;2.10;;
68076;SDS011;54866;53.458;14.540;2022-08-01T03:48:58;3.60;;;2.20;;
68076;SDS011;54866;53.458;14.540;2022-08-01T03:51:33;3.90;;;2.10;;
68076;SDS011;54866;53.458;14.540;2022-08-01T03:54:04;4.60;;;1.90;;
68076;SDS011;54866;53.458;14.540;2022-08-01T03:56:36;4.10;;;2.00;;
68076;SDS011;54866;53.458;14.540;2022-08-01T03:59:08;5.10;;;2.70;;
68076;SDS011;54866;53.458;14.540;2022-08-01T04:01:38;4.00;;;2.40;;
68076;SDS011;54866;53.458;14.540;2022-08-01T04:04:08;5.50;;;2.20;;
68076;SDS011;54866;53.458;14.540;2022-08-01T04:06:38;4.80;;;2.30;;
68076;SDS011;54866;53.458;14.540;2022-08-01T04:09:10;4.90;;;1.70;;
68076;SDS011;54866;53.458;14.540;2022-08-01T04:11:40;3.80;;;1.80;;
68076;SDS011;54866;53.458;14.540;2022-08-01T04:14:10;4.40;;;1.80;;
68076;SDS011;54866;53.458;14.540;2022-08-01T04:16:40;2.30;;;1.70;;
68076;SDS011;54866;53.458;14.540;2022-08-01T04:19:09;3.40;;;1.50;;
68076;SDS011;54866;53.458;14.540;2022-08-01T04:21:40;3.60;;;1.80;;
68076;SDS011;54866;53.458;14.540;2022-08-01T04:24:10;2.30;;;1.60;;
68076;SDS011;54866;53.458;14.540;2022-08-01T04:26:43;3.80;;;1.70;;
68076;SDS011;54866;53.458;14.540;2022-08-01T04:29:15;2.80;;;1.80;;
68076;SDS011;54866;53.458;14.540;2022-08-01T04:31:48;2.50;;;1.70;;
68076;SDS011;54866;53.458;14.540;2022-08-01T04:34:21;2.30;;;1.50;;
68076;SDS011;54866;53.458;14.540;2022-08-01T04:36:54;4.40;;;1.60;;
68076;SDS011;54866;53.458;14.540;2022-08-01T04:39:25;2.80;;;1.50;;
68076;SDS011;54866;53.458;14.540;2022-08-01T04:41:59;2.60;;;1.70;;
68076;SDS011;54866;53.458;14.540;2022-08-01T04:44:30;2.20;;;1.50;;
68076;SDS011;54866;53.458;14.540;2022-08-01T04:47:00;3.60;;;1.60;;
68076;SDS011;54866;53.458;14.540;2022-08-01T04:49:32;4.20;;;2.20;;
68076;SDS011;54866;53.458;14.540;2022-08-01T04:52:02;3.10;;;1.70;;
68076;SDS011;54866;53.458;14.540;2022-08-01T04:54:33;5.50;;;1.90;;
68076;SDS011;54866;53.458;14.540;2022-08-01T04:57:05;3.60;;;2.10;;
68076;SDS011;54866;53.458;14.540;2022-08-01T04:59:35;4.30;;;2.10;;
68076;SDS011;54866;53.458;14.540;2022-08-01T05:02:10;4.40;;;2.30;;
68076;SDS011;54866;53.458;14.540;2022-08-01T05:04:41;4.80;;;2.20;;
68076;SDS011;54866;53.458;14.540;2022-08-01T05:07:12;3.80;;;2.20;;
68076;SDS011;54866;53.458;14.540;2022-08-01T05:09:43;3.60;;;2.10;;
68076;SDS011;54866;53.458;14.540;2022-08-01T05:12:13;3.70;;;2.10;;
68076;SDS011;54866;53.458;14.540;2022-08-01T05:14:43;3.70;;;1.90;;
68076;SDS011;54866;53.458;14.540;2022-08-01T05:17:13;3.20;;;1.90;;
68076;SDS011;54866;53.458;14.540;2022-08-01T05:19:43;5.50;;;2.30;;
68076;SDS011;54866;53.458;14.540;2022-08-01T05:22:13;4.60;;;2.10;;
68076;SDS011;54866;53.458;14.540;2022-08-01T05:24:43;4.80;;;3.00;;
68076;SDS011;54866;53.458;14.540;2022-08-01T05:27:13;4.90;;;3.00;;
68076;SDS011;54866;53.458;14.540;2022-08-01T05:29:43;3.20;;;2.30;;
68076;SDS011;54866;53.458;14.540;2022-08-01T05:32:13;4.10;;;2.20;;
68076;SDS011;54866;53.458;14.540;2022-08-01T05:34:42;3.70;;;2.40;;
68076;SDS011;54866;53.458;14.540;2022-08-01T05:37:12;4.50;;;3.20;;
68076;SDS011;54866;53.458;14.540;2022-08-01T05:39:42;4.80;;;2.30;;
68076;SDS011;54866;53.458;14.540;2022-08-01T05:42:12;5.30;;;2.50;;
68076;SDS011;54866;53.458;14.540;2022-08-01T05:44:42;6.40;;;2.60;;
68076;SDS011;54866;53.458;14.540;2022-08-01T05:47:13;4.90;;;2.80;;
68076;SDS011;54866;53.458;14.540;2022-08-01T05:49:43;3.20;;;2.10;;
68076;SDS011;54866;53.458;14.540;2022-08-01T05:52:13;4.60;;;2.10;;
68076;SDS011;54866;53.458;14.540;2022-08-01T05:54:42;6.20;;;2.50;;
68076;SDS011;54866;53.458;14.540;2022-08-01T05:57:12;3.70;;;2.40;;
68076;SDS011;54866;53.458;14.540;2022-08-01T05:59:42;3.20;;;2.30;;
68076;SDS011;54866;53.458;14.540;2022-08-01T06:02:12;4.80;;;2.40;;
68076;SDS011;54866;53.458;14.540;2022-08-01T06:04:41;5.10;;;2.20;;
68076;SDS011;54866;53.458;14.540;2022-08-01T06:07:11;3.60;;;1.90;;
68076;SDS011;54866;53.458;14.540;2022-08-01T06:09:41;3.40;;;2.10;;
68076;SDS011;54866;53.458;14.540;2022-08-01T06:12:10;4.40;;;2.10;;
68076;SDS011;54866;53.458;14.540;2022-08-01T06:14:40;4.10;;;2.00;;
68076;SDS011;54866;53.458;14.540;2022-08-01T06:17:10;3.80;;;1.80;;
68076;SDS011;54866;53.458;14.540;2022-08-01T06:19:40;7.90;;;2.20;;
68076;SDS011;54866;53.458;14.540;2022-08-01T06:22:09;3.30;;;2.10;;
68076;SDS011;54866;53.458;14.540;2022-08-01T06:24:39;3.20;;;1.70;;
68076;SDS011;54866;53.458;14.540;2022-08-01T06:27:09;5.00;;;1.90;;
68076;SDS011;54866;53.458;14.540;2022-08-01T06:29:39;5.50;;;2.20;;
68076;SDS011;54866;53.458;14.540;2022-08-01T06:32:09;5.60;;;2.30;;
68076;SDS011;54866;53.458;14.540;2022-08-01T06:34:39;2.80;;;2.10;;
68076;SDS011;54866;53.458;14.540;2022-08-01T06:37:09;3.70;;;2.00;;
68076;SDS011;54866;53.458;14.540;2022-08-01T06:39:40;3.50;;;1.80;;
68076;SDS011;54866;53.458;14.540;2022-08-01T06:42:10;3.40;;;2.10;;
68076;SDS011;54866;53.458;14.540;2022-08-01T06:44:41;2.40;;;1.60;;
68076;SDS011;54866;53.458;14.540;2022-08-01T06:47:11;2.70;;;1.70;;
68076;SDS011;54866;53.458;14.540;2022-08-01T06:49:41;4.00;;;1.90;;
68076;SDS011;54866;53.458;14.540;2022-08-01T06:52:10;3.90;;;1.80;;
68076;SDS011;54866;53.458;14.540;2022-08-01T06:54:40;3.70;;;1.70;;
68076;SDS011;54866;53.458;14.540;2022-08-01T06:57:10;5.30;;;2.60;;
68076;SDS011;54866;53.458;14.540;2022-08-01T06:59:40;4.70;;;2.10;;
68076;SDS011;54866;53.458;14.540;2022-08-01T07:02:10;3.60;;;2.10;;
68076;SDS011;54866;53.458;14.540;2022-08-01T07:04:40;3.20;;;2.40;;
68076;SDS011;54866;53.458;14.540;2022-08-01T07:07:10;4.90;;;2.50;;
68076;SDS011;54866;53.458;14.540;2022-08-01T07:09:40;3.70;;;1.90;;
68076;SDS011;54866;53.458;14.540;2022-08-01T07:12:09;7.30;;;2.00;;
68076;SDS011;54866;53.458;14.540;2022-08-01T07:14:39;4.40;;;1.80;;
68076;SDS011;54866;53.458;14.540;2022-08-01T07:17:09;3.20;;;2.10;;
68076;SDS011;54866;53.458;14.540;2022-08-01T07:19:39;3.80;;;1.90;;
68076;SDS011;54866;53.458;14.540;2022-08-01T07:22:08;4.60;;;2.10;;
68076;SDS011;54866;53.458;14.540;2022-08-01T07:24:38;3.80;;;1.70;;
68076;SDS011;54866;53.458;14.540;2022-08-01T07:27:08;3.80;;;1.80;;
68076;SDS011;54866;53.458;14.540;2022-08-01T07:29:38;4.20;;;2.20;;
68076;SDS011;54866;53.458;14.540;2022-08-01T07:32:07;3.00;;;2.40;;
68076;SDS011;54866;53.458;14.540;2022-08-01T07:34:37;3.80;;;2.20;;
68076;SDS011;54866;53.458;14.540;2022-08-01T07:37:07;3.90;;;2.20;;
68076;SDS011;54866;53.458;14.540;2022-08-01T07:39:37;3.50;;;2.00;;
68076;SDS011;54866;53.458;14.540;2022-08-01T07:42:07;3.10;;;2.00;;
68076;SDS011;54866;53.458;14.540;2022-08-01T07:44:37;3.90;;;2.30;;
68076;SDS011;54866;53.458;14.540;2022-08-01T07:47:07;3.70;;;2.00;;
68076;SDS011;54866;53.458;14.540;2022-08-01T07:49:37;3.50;;;2.10;;
68076;SDS011;54866;53.458;14.540;2022-08-01T07:52:07;5.70;;;2.50;;
68076;SDS011;54866;53.458;14.540;2022-08-01T07:54:37;3.10;;;2.00;;
68076;SDS011;54866;53.458;14.540;2022-08-01T07:57:07;3.00;;;2.40;;
68076;SDS011;54866;53.458;14.540;2022-08-01T07:59:37;3.50;;;2.10;;
68076;SDS011;54866;53.458;14.540;2022-08-01T08:02:06;3.60;;;2.30;;
68076;SDS011;54866;53.458;14.540;2022-08-01T08:04:36;7.10;;;2.20;;
68076;SDS011;54866;53.458;14.540;2022-08-01T08:07:06;4.80;;;3.60;;
68076;SDS011;54866;53.458;14.540;2022-08-01T08:09:36;7.00;;;5.10;;
68076;SDS011;54866;53.458;14.540;2022-08-01T08:12:06;11.80;;;8.40;;
68076;SDS011;54866;53.458;14.540;2022-08-01T08:14:37;14.20;;;11.00;;
68076;SDS011;54866;53.458;14.540;2022-08-01T08:17:06;14.90;;;12.40;;
68076;SDS011;54866;53.458;14.540;2022-08-01T08:19:36;17.10;;;12.70;;
68076;SDS011;54866;53.458;14.540;2022-08-01T08:22:06;15.90;;;11.50;;
68076;SDS011;54866;53.458;14.540;2022-08-01T08:24:37;14.80;;;11.50;;
68076;SDS011;54866;53.458;14.540;2022-08-01T08:27:07;14.10;;;12.10;;
68076;SDS011;54866;53.458;14.540;2022-08-01T08:29:37;16.90;;;13.70;;
68076;SDS011;54866;53.458;14.540;2022-08-01T08:32:07;15.80;;;13.70;;
68076;SDS011;54866;53.458;14.540;2022-08-01T08:34:37;16.40;;;13.00;;
68076;SDS011;54866;53.458;14.540;2022-08-01T08:37:07;15.00;;;12.00;;
68076;SDS011;54866;53.458;14.540;2022-08-01T08:39:37;14.30;;;10.80;;
68076;SDS011;54866;53.458;14.540;2022-08-01T08:42:08;12.10;;;9.70;;
68076;SDS011;54866;53.458;14.540;2022-08-01T08:44:39;10.90;;;8.70;;
68076;SDS011;54866;53.458;14.540;2022-08-01T08:47:09;9.80;;;8.90;;
68076;SDS011;54866;53.458;14.540;2022-08-01T08:49:42;10.40;;;8.90;;
68076;SDS011;54866;53.458;14.540;2022-08-01T08:52:13;9.20;;;7.40;;
68076;SDS011;54866;53.458;14.540;2022-08-01T08:54:46;8.20;;;6.80;;
68076;SDS011;54866;53.458;14.540;2022-08-01T08:57:17;8.30;;;6.80;;
68076;SDS011;54866;53.458;14.540;2022-08-01T08:59:48;7.40;;;5.90;;
68076;SDS011;54866;53.458;14.540;2022-08-01T09:02:20;7.30;;;5.80;;
68076;SDS011;54866;53.458;14.540;2022-08-01T09:04:51;7.40;;;6.10;;
68076;SDS011;54866;53.458;14.540;2022-08-01T09:07:20;5.60;;;4.20;;
68076;SDS011;54866;53.458;14.540;2022-08-01T09:09:52;5.50;;;4.10;;
68076;SDS011;54866;53.458;14.540;2022-08-01T09:12:22;5.90;;;3.70;;
68076;SDS011;54866;53.458;14.540;2022-08-01T09:14:52;6.40;;;4.30;;
68076;SDS011;54866;53.458;14.540;2022-08-01T09:17:21;4.30;;;3.90;;
68076;SDS011;54866;53.458;14.540;2022-08-01T09:19:52;5.40;;;3.90;;
68076;SDS011;54866;53.458;14.540;2022-08-01T09:22:24;4.30;;;3.80;;
68076;SDS011;54866;53.458;14.540;2022-08-01T09:25:04;4.50;;;3.90;;
68076;SDS011;54866;53.458;14.540;2022-08-01T09:27:36;4.50;;;3.80;;
68076;SDS011;54866;53.458;14.540;2022-08-01T09:30:10;5.30;;;3.70;;
68076;SDS011;54866;53.458;14.540;2022-08-01T09:32:53;6.50;;;3.70;;
68076;SDS011;54866;53.458;14.540;2022-08-01T09:35:27;4.90;;;3.90;;
68076;SDS011;54866;53.458;14.540;2022-08-01T09:38:12;4.70;;;4.20;;
68076;SDS011;54866;53.458;14.540;2022-08-01T09:43:16;6.50;;;4.10;;
68076;SDS011;54866;53.458;14.540;2022-08-01T09:45:47;4.30;;;3.80;;
68076;SDS011;54866;53.458;14.540;2022-08-01T09:48:17;5.30;;;4.00;;
68076;SDS011;54866;53.458;14.540;2022-08-01T09:50:48;4.20;;;3.60;;
68076;SDS011;54866;53.458;14.540;2022-08-01T09:53:19;3.80;;;3.40;;
68076;SDS011;54866;53.458;14.540;2022-08-01T09:55:49;5.10;;;3.70;;
68076;SDS011;54866;53.458;14.540;2022-08-01T09:58:21;4.90;;;4.40;;
68076;SDS011;54866;53.458;14.540;2022-08-01T10:00:58;6.40;;;4.00;;
68076;SDS011;54866;53.458;14.540;2022-08-01T10:03:30;4.90;;;4.50;;
68076;SDS011;54866;53.458;14.540;2022-08-01T10:06:00;4.90;;;4.00;;
68076;SDS011;54866;53.458;14.540;2022-08-01T10:08:48;5.70;;;3.90;;
68076;SDS011;54866;53.458;14.540;2022-08-01T10:11:18;7.10;;;5.40;;
68076;SDS011;54866;53.458;14.540;2022-08-01T10:13:48;5.00;;;4.00;;
68076;SDS011;54866;53.458;14.540;2022-08-01T10:16:19;7.80;;;4.90;;
68076;SDS011;54866;53.458;14.540;2022-08-01T10:18:49;4.80;;;4.40;;
68076;SDS011;54866;53.458;14.540;2022-08-01T10:21:21;4.80;;;4.30;;
68076;SDS011;54866;53.458;14.540;2022-08-01T10:23:55;4.80;;;4.30;;
68076;SDS011;54866;53.458;14.540;2022-08-01T10:26:26;6.30;;;4.90;;
68076;SDS011;54866;53.458;14.540;2022-08-01T10:28:59;5.10;;;4.60;;
68076;SDS011;54866;53.458;14.540;2022-08-01T10:31:32;6.10;;;4.30;;
68076;SDS011;54866;53.458;14.540;2022-08-01T10:34:02;5.40;;;4.30;;
68076;SDS011;54866;53.458;14.540;2022-08-01T10:36:33;5.20;;;4.50;;
68076;SDS011;54866;53.458;14.540;2022-08-01T10:39:05;5.70;;;4.60;;
68076;SDS011;54866;53.458;14.540;2022-08-01T10:41:38;6.10;;;4.90;;
68076;SDS011;54866;53.458;14.540;2022-08-01T10:44:08;5.80;;;4.70;;
68076;SDS011;54866;53.458;14.540;2022-08-01T10:46:39;7.50;;;5.20;;
68076;SDS011;54866;53.458;14.540;2022-08-01T10:49:15;6.40;;;4.90;;
68076;SDS011;54866;53.458;14.540;2022-08-01T10:51:49;7.10;;;5.00;;
68076;SDS011;54866;53.458;14.540;2022-08-01T10:54:19;5.50;;;4.90;;
68076;SDS011;54866;53.458;14.540;2022-08-01T10:56:54;5.90;;;5.30;;
68076;SDS011;54866;53.458;14.540;2022-08-01T10:59:28;5.40;;;5.00;;
68076;SDS011;54866;53.458;14.540;2022-08-01T11:01:59;6.60;;;5.80;;
68076;SDS011;54866;53.458;14.540;2022-08-01T11:04:34;7.80;;;6.00;;
68076;SDS011;54866;53.458;14.540;2022-08-01T11:07:17;6.20;;;5.60;;
68076;SDS011;54866;53.458;14.540;2022-08-01T11:09:51;5.70;;;5.10;;
68076;SDS011;54866;53.458;14.540;2022-08-01T11:12:38;6.50;;;5.00;;
68076;SDS011;54866;53.458;14.540;2022-08-01T11:15:19;6.70;;;5.30;;
68076;SDS011;54866;53.458;14.540;2022-08-01T11:17:54;6.20;;;4.50;;
68076;SDS011;54866;53.458;14.540;2022-08-01T11:20:24;6.00;;;5.40;;
68076;SDS011;54866;53.458;14.540;2022-08-01T11:26:10;4.60;;;4.10;;
68076;SDS011;54866;53.458;14.540;2022-08-01T11:28:42;12.80;;;4.90;;
68076;SDS011;54866;53.458;14.540;2022-08-01T11:31:27;5.50;;;4.10;;
68076;SDS011;54866;53.458;14.540;2022-08-01T11:33:58;6.60;;;3.20;;
68076;SDS011;54866;53.458;14.540;2022-08-01T11:36:28;4.90;;;4.00;;
68076;SDS011;54866;53.458;14.540;2022-08-01T11:39:17;5.20;;;4.70;;
68076;SDS011;54866;53.458;14.540;2022-08-01T11:41:47;4.00;;;3.60;;
68076;SDS011;54866;53.458;14.540;2022-08-01T11:44:19;3.70;;;3.40;;
68076;SDS011;54866;53.458;14.540;2022-08-01T11:46:55;4.00;;;3.40;;
68076;SDS011;54866;53.458;14.540;2022-08-01T11:49:32;4.50;;;3.30;;
68076;SDS011;54866;53.458;14.540;2022-08-01T11:52:13;3.80;;;3.20;;
68076;SDS011;54866;53.458;14.540;2022-08-01T11:54:45;4.40;;;3.70;;
68076;SDS011;54866;53.458;14.540;2022-08-01T11:57:17;4.40;;;3.90;;
68076;SDS011;54866;53.458;14.540;2022-08-01T11:59:49;4.50;;;3.60;;
68076;SDS011;54866;53.458;14.540;2022-08-01T12:02:21;4.50;;;3.60;;
68076;SDS011;54866;53.458;14.540;2022-08-01T12:04:53;6.90;;;4.10;;
68076;SDS011;54866;53.458;14.540;2022-08-01T12:07:25;6.30;;;4.60;;
68076;SDS011;54866;53.458;14.540;2022-08-01T12:10:00;6.00;;;4.30;;
68076;SDS011;54866;53.458;14.540;2022-08-01T12:12:33;4.40;;;4.00;;
68076;SDS011;54866;53.458;14.540;2022-08-01T12:15:05;4.60;;;4.20;;
68076;SDS011;54866;53.458;14.540;2022-08-01T12:17:37;4.70;;;4.30;;
68076;SDS011;54866;53.458;14.540;2022-08-01T12:20:09;4.60;;;4.00;;
68076;SDS011;54866;53.458;14.540;2022-08-01T12:22:41;5.20;;;4.70;;
68076;SDS011;54866;53.458;14.540;2022-08-01T12:25:12;5.20;;;4.70;;
68076;SDS011;54866;53.458;14.540;2022-08-01T12:27:43;4.80;;;4.40;;
68076;SDS011;54866;53.458;14.540;2022-08-01T12:30:15;5.40;;;4.80;;
68076;SDS011;54866;53.458;14.540;2022-08-01T12:32:46;4.00;;;3.60;;
68076;SDS011;54866;53.458;14.540;2022-08-01T12:35:17;5.10;;;3.80;;
68076;SDS011;54866;53.458;14.540;2022-08-01T12:37:50;4.40;;;3.60;;
68076;SDS011;54866;53.458;14.540;2022-08-01T12:40:22;3.60;;;3.10;;
68076;SDS011;54866;53.458;14.540;2022-08-01T12:42:54;4.50;;;3.50;;
68076;SDS011;54866;53.458;14.540;2022-08-01T12:45:25;3.70;;;3.10;;
68076;SDS011;54866;53.458;14.540;2022-08-01T12:47:58;3.60;;;3.00;;
68076;SDS011;54866;53.458;14.540;2022-08-01T12:50:29;3.90;;;3.20;;
68076;SDS011;54866;53.458;14.540;2022-08-01T12:53:00;3.70;;;3.40;;
68076;SDS011;54866;53.458;14.540;2022-08-01T12:55:30;3.70;;;3.10;;
68076;SDS011;54866;53.458;14.540;2022-08-01T12:58:07;3.50;;;3.10;;
68076;SDS011;54866;53.458;14.540;2022-08-01T13:00:38;4.40;;;3.30;;
68076;SDS011;54866;53.458;14.540;2022-08-01T13:03:11;4.90;;;3.70;;
68076;SDS011;54866;53.458;14.540;2022-08-01T13:05:44;8.90;;;3.50;;
68076;SDS011;54866;53.458;14.540;2022-08-01T13:08:15;13.70;;;4.70;;
68076;SDS011;54866;53.458;14.540;2022-08-01T13:10:46;8.40;;;3.70;;
68076;SDS011;54866;53.458;14.540;2022-08-01T13:13:18;4.80;;;3.70;;
68076;SDS011;54866;53.458;14.540;2022-08-01T13:15:48;4.50;;;3.40;;
68076;SDS011;54866;53.458;14.540;2022-08-01T13:18:33;4.40;;;2.90;;
68076;SDS011;54866;53.458;14.540;2022-08-01T13:21:10;3.60;;;2.90;;
68076;SDS011;54866;53.458;14.540;2022-08-01T13:23:42;3.50;;;3.20;;
68076;SDS011;54866;53.458;14.540;2022-08-01T13:26:42;3.50;;;3.20;;
68076;SDS011;54866;53.458;14.540;2022-08-01T13:29:13;3.20;;;2.90;;
68076;SDS011;54866;53.458;14.540;2022-08-01T13:31:44;4.70;;;3.30;;
68076;SDS011;54866;53.458;14.540;2022-08-01T13:34:14;3.90;;;3.20;;
68076;SDS011;54866;53.458;14.540;2022-08-01T13:36:45;3.70;;;3.10;;
68076;SDS011;54866;53.458;14.540;2022-08-01T13:39:15;4.60;;;3.30;;
68076;SDS011;54866;53.458;14.540;2022-08-01T13:42:02;3.70;;;3.30;;
68076;SDS011;54866;53.458;14.540;2022-08-01T13:44:33;4.00;;;3.10;;
68076;SDS011;54866;53.458;14.540;2022-08-01T13:47:03;3.60;;;3.30;;
68076;SDS011;54866;53.458;14.540;2022-08-01T13:49:33;4.50;;;3.70;;
68076;SDS011;54866;53.458;14.540;2022-08-01T13:52:03;5.20;;;3.60;;
68076;SDS011;54866;53.458;14.540;2022-08-01T13:54:33;5.40;;;3.50;;
68076;SDS011;54866;53.458;14.540;2022-08-01T13:57:03;3.50;;;2.70;;
68076;SDS011;54866;53.458;14.540;2022-08-01T13:59:33;4.60;;;3.70;;
68076;SDS011;54866;53.458;14.540;2022-08-01T14:02:03;3.60;;;3.00;;
68076;SDS011;54866;53.458;14.540;2022-08-01T14:04:33;2.90;;;2.60;;
68076;SDS011;54866;53.458;14.540;2022-08-01T14:07:02;3.00;;;2.70;;
68076;SDS011;54866;53.458;14.540;2022-08-01T14:09:32;3.10;;;2.80;;
68076;SDS011;54866;53.458;14.540;2022-08-01T14:12:02;4.80;;;3.60;;
68076;SDS011;54866;53.458;14.540;2022-08-01T14:14:32;3.70;;;3.30;;
68076;SDS011;54866;53.458;14.540;2022-08-01T14:17:03;3.90;;;3.50;;
68076;SDS011;54866;53.458;14.540;2022-08-01T14:19:32;3.60;;;3.30;;
68076;SDS011;54866;53.458;14.540;2022-08-01T14:22:02;4.60;;;3.70;;
68076;SDS011;54866;53.458;14.540;2022-08-01T14:24:32;4.60;;;3.80;;
68076;SDS011;54866;53.458;14.540;2022-08-01T14:27:02;5.00;;;4.20;;
68076;SDS011;54866;53.458;14.540;2022-08-01T14:29:31;5.00;;;4.10;;
68076;SDS011;54866;53.458;14.540;2022-08-01T14:32:01;4.90;;;3.90;;
68076;SDS011;54866;53.458;14.540;2022-08-01T14:34:32;4.40;;;4.00;;
68076;SDS011;54866;53.458;14.540;2022-08-01T14:37:02;5.30;;;3.80;;
68076;SDS011;54866;53.458;14.540;2022-08-01T14:39:31;4.40;;;4.00;;
68076;SDS011;54866;53.458;14.540;2022-08-01T14:42:01;5.20;;;4.10;;
68076;SDS011;54866;53.458;14.540;2022-08-01T14:44:31;4.40;;;4.00;;
68076;SDS011;54866;53.458;14.540;2022-08-01T14:47:01;4.20;;;3.80;;
68076;SDS011;54866;53.458;14.540;2022-08-01T14:49:31;5.40;;;4.00;;
68076;SDS011;54866;53.458;14.540;2022-08-01T14:52:00;4.50;;;4.00;;
68076;SDS011;54866;53.458;14.540;2022-08-01T14:54:31;5.10;;;4.00;;
68076;SDS011;54866;53.458;14.540;2022-08-01T14:57:01;5.00;;;4.40;;
68076;SDS011;54866;53.458;14.540;2022-08-01T14:59:31;4.80;;;4.30;;
68076;SDS011;54866;53.458;14.540;2022-08-01T15:02:01;4.20;;;3.80;;
68076;SDS011;54866;53.458;14.540;2022-08-01T15:04:31;5.20;;;4.40;;